createdAt,value
2023-05-18T00:00:35.334Z,11.90
2023-05-18T00:03:03.987Z,11.90
2023-05-18T00:05:34.405Z,11.90
2023-05-18T00:08:02.735Z,11.80
2023-05-18T00:10:32.391Z,11.80
2023-05-18T00:13:00.545Z,11.80
2023-05-18T00:15:28.792Z,11.70
2023-05-18T00:17:57.199Z,11.70
2023-05-18T00:20:26.598Z,11.70
2023-05-18T00:22:55.093Z,11.70
2023-05-18T00:25:23.236Z,11.60
2023-05-18T00:27:53.297Z,11.60
2023-05-18T00:30:21.933Z,11.60
2023-05-18T00:32:52.989Z,11.60
2023-05-18T00:35:21.493Z,11.50
2023-05-18T00:37:49.529Z,11.50
2023-05-18T00:40:18.152Z,11.50
2023-05-18T00:42:46.144Z,11.50
2023-05-18T00:45:15.830Z,11.40
2023-05-18T00:47:43.936Z,11.40
2023-05-18T00:50:12.544Z,11.40
2023-05-18T00:52:41.653Z,11.40
2023-05-18T00:55:12.372Z,11.30
2023-05-18T00:57:42.164Z,11.30
2023-05-18T01:00:14.793Z,11.30
2023-05-18T01:02:45.616Z,11.30
2023-05-18T01:05:14.580Z,11.30
2023-05-18T01:07:43.952Z,11.30
2023-05-18T01:10:13.635Z,11.20
2023-05-18T01:12:46.971Z,11.20
2023-05-18T01:15:17.730Z,11.20
2023-05-18T01:18:05.470Z,11.20
2023-05-18T01:20:38.932Z,11.20
2023-05-18T01:23:41.599Z,11.10
2023-05-18T01:26:17.070Z,11.10
2023-05-18T01:28:47.521Z,11.00
2023-05-18T01:31:16.434Z,11.00
2023-05-18T01:33:45.233Z,11.00
2023-05-18T01:36:13.405Z,10.90
2023-05-18T01:38:44.230Z,10.90
2023-05-18T01:41:22.497Z,10.90
2023-05-18T01:43:56.817Z,10.90
2023-05-18T01:46:33.729Z,10.90
2023-05-18T01:49:10.050Z,10.90
2023-05-18T01:51:43.521Z,10.90
2023-05-18T01:54:13.701Z,10.80
2023-05-18T01:56:44.686Z,10.80
2023-05-18T01:59:13.681Z,10.80
2023-05-18T02:01:41.783Z,10.80
2023-05-18T02:04:10.766Z,10.70
2023-05-18T02:06:39.172Z,10.80
2023-05-18T02:09:07.214Z,10.80
2023-05-18T02:11:35.233Z,10.70
2023-05-18T02:14:05.216Z,10.70
2023-05-18T02:16:33.466Z,10.70
2023-05-18T02:19:01.588Z,10.70
2023-05-18T02:21:32.519Z,10.70
2023-05-18T02:24:00.529Z,10.60
2023-05-18T02:26:28.599Z,10.60
2023-05-18T02:28:57.081Z,10.60
2023-05-18T02:31:29.468Z,10.50
2023-05-18T02:33:58.044Z,10.50
2023-05-18T02:36:26.842Z,10.50
2023-05-18T02:38:54.924Z,10.50
2023-05-18T02:41:23.450Z,10.50
2023-05-18T02:43:51.656Z,10.50
2023-05-18T02:46:19.735Z,10.40
2023-05-18T02:48:49.372Z,10.40
2023-05-18T02:51:17.433Z,10.40
2023-05-18T02:53:45.533Z,10.40
2023-05-18T02:56:13.637Z,10.40
2023-05-18T02:58:43.682Z,10.40
2023-05-18T03:01:12.203Z,10.30
2023-05-18T03:03:42.099Z,10.30
2023-05-18T03:06:11.697Z,10.30
2023-05-18T03:08:41.115Z,10.30
2023-05-18T03:11:09.093Z,10.20
2023-05-18T03:13:37.414Z,10.20
2023-05-18T03:16:06.458Z,10.20
2023-05-18T03:18:34.741Z,10.20
2023-05-18T03:21:03.871Z,10.20
2023-05-18T03:23:33.727Z,10.20
2023-05-18T03:26:04.196Z,10.10
2023-05-18T03:28:32.290Z,10.20
2023-05-18T03:31:00.603Z,10.10
2023-05-18T03:33:29.099Z,10.10
2023-05-18T03:35:57.222Z,10.10
2023-05-18T03:38:25.282Z,10.10
2023-05-18T03:40:55.155Z,10.10
2023-05-18T03:43:25.820Z,10.10
2023-05-18T03:45:54.117Z,10.10
2023-05-18T03:48:22.324Z,10.10
2023-05-18T03:50:50.464Z,10.10
2023-05-18T03:53:19.204Z,10.10
2023-05-18T03:55:49.187Z,10.00
2023-05-18T03:58:20.128Z,10.00
2023-05-18T04:00:49.849Z,10.00
2023-05-18T04:03:18.128Z,9.90
2023-05-18T04:05:46.250Z,9.90
2023-05-18T04:08:14.771Z,9.90
2023-05-18T04:10:43.833Z,9.90
2023-05-18T04:13:12.416Z,9.90
2023-05-18T04:15:42.465Z,9.90
2023-05-18T04:18:11.048Z,9.90
2023-05-18T04:20:39.448Z,9.80
2023-05-18T04:23:09.739Z,9.80
2023-05-18T04:25:39.545Z,9.80
2023-05-18T04:28:08.477Z,9.80
2023-05-18T04:30:37.715Z,9.80
2023-05-18T04:33:08.469Z,9.80
2023-05-18T04:35:36.677Z,9.80
2023-05-18T04:38:05.406Z,9.80
2023-05-18T04:40:34.917Z,9.80
2023-05-18T04:43:04.389Z,9.80
2023-05-18T04:45:34.493Z,9.80
2023-05-18T04:48:02.862Z,9.80
2023-05-18T04:50:32.423Z,9.80
2023-05-18T04:53:02.462Z,9.80
2023-05-18T04:55:31.292Z,9.80
2023-05-18T04:58:00.580Z,9.80
2023-05-18T05:00:30.370Z,9.80
2023-05-18T05:03:00.356Z,9.80
2023-05-18T05:05:28.615Z,9.80
2023-05-18T05:07:58.882Z,9.80
2023-05-18T05:10:28.084Z,9.80
2023-05-18T05:12:56.424Z,9.80
2023-05-18T05:15:24.959Z,9.80
2023-05-18T05:17:53.343Z,9.80
2023-05-18T05:20:22.110Z,9.80
2023-05-18T05:22:50.294Z,9.80
2023-05-18T05:25:19.613Z,9.80
2023-05-18T05:27:47.712Z,9.80
2023-05-18T05:30:15.769Z,9.80
2023-05-18T05:32:43.852Z,9.80
2023-05-18T05:35:11.962Z,9.80
2023-05-18T05:37:40.758Z,9.80
2023-05-18T05:40:10.098Z,9.80
2023-05-18T05:42:39.852Z,9.90
2023-05-18T05:45:09.179Z,9.90
2023-05-18T05:47:37.285Z,9.90
2023-05-18T05:50:08.024Z,9.90
2023-05-18T05:52:36.049Z,9.90
2023-05-18T05:55:04.952Z,10.00
2023-05-18T05:57:32.951Z,10.00
2023-05-18T06:00:02.912Z,10.00
2023-05-18T06:02:31.164Z,10.00
2023-05-18T06:04:59.393Z,10.10
2023-05-18T06:07:27.804Z,10.10
2023-05-18T06:09:55.888Z,10.10
2023-05-18T06:12:24.180Z,10.20
2023-05-18T06:14:54.312Z,10.20
2023-05-18T06:17:23.723Z,10.20
2023-05-18T06:19:51.759Z,10.30
2023-05-18T06:22:20.388Z,10.30
2023-05-18T06:24:48.521Z,10.40
2023-05-18T06:27:16.920Z,10.40
2023-05-18T06:29:45.166Z,10.40
2023-05-18T06:32:13.691Z,10.50
2023-05-18T06:34:45.831Z,10.50
2023-05-18T06:37:14.199Z,10.60
2023-05-18T06:39:42.165Z,10.60
2023-05-18T06:42:10.192Z,10.60
2023-05-18T06:44:38.189Z,10.70
2023-05-18T06:47:07.165Z,10.70
2023-05-18T06:49:35.208Z,10.70
2023-05-18T06:52:05.145Z,10.80
2023-05-18T06:54:33.089Z,10.80
2023-05-18T06:57:01.128Z,10.90
2023-05-18T06:59:29.148Z,10.90
2023-05-18T07:01:57.582Z,11.00
2023-05-18T07:04:25.595Z,11.00
2023-05-18T07:06:55.847Z,11.10
2023-05-18T07:09:26.518Z,11.10
2023-05-18T07:11:54.598Z,11.20
2023-05-18T07:14:22.658Z,11.20
2023-05-18T07:16:50.708Z,11.30
2023-05-18T07:19:18.775Z,11.30
2023-05-18T07:21:46.845Z,11.40
2023-05-18T07:24:14.785Z,11.40
2023-05-18T07:26:44.205Z,11.50
2023-05-18T07:29:12.365Z,11.50
2023-05-18T07:31:41.132Z,11.60
2023-05-18T07:34:09.209Z,11.70
2023-05-18T07:36:39.572Z,11.70
2023-05-18T07:39:08.176Z,11.70
2023-05-18T07:41:36.380Z,11.80
2023-05-18T07:44:06.684Z,11.90
2023-05-18T07:46:34.840Z,12.00
2023-05-18T07:49:10.155Z,12.00
2023-05-18T07:51:38.228Z,12.00
2023-05-18T07:54:06.822Z,12.10
2023-05-18T07:56:35.462Z,12.10
2023-05-18T07:59:06.776Z,12.20
2023-05-18T08:01:35.170Z,12.20
2023-05-18T08:04:03.812Z,12.30
2023-05-18T08:06:32.438Z,12.30
2023-05-18T08:09:00.435Z,12.40
2023-05-18T08:11:28.513Z,12.50
2023-05-18T08:13:56.578Z,12.50
2023-05-18T08:16:27.839Z,12.60
2023-05-18T08:18:55.877Z,12.60
2023-05-18T08:21:24.037Z,12.70
2023-05-18T08:23:52.041Z,12.70
2023-05-18T08:26:20.088Z,12.80
2023-05-18T08:28:48.840Z,12.90
2023-05-18T08:31:17.026Z,12.90
2023-05-18T08:33:47.156Z,13.00
2023-05-18T08:36:15.292Z,13.10
2023-05-18T08:38:43.303Z,13.20
2023-05-18T08:41:18.032Z,13.20
2023-05-18T08:43:50.032Z,13.30
2023-05-18T08:46:22.150Z,13.30
2023-05-18T08:48:54.646Z,13.40
2023-05-18T08:51:23.608Z,13.50
2023-05-18T08:53:54.758Z,13.50
2023-05-18T08:56:24.070Z,13.60
2023-05-18T08:58:55.648Z,13.70
2023-05-18T09:01:28.249Z,13.70
2023-05-18T09:03:58.690Z,13.80
2023-05-18T09:06:28.410Z,13.90
2023-05-18T09:08:57.729Z,13.90
2023-05-18T09:11:28.088Z,14.00
2023-05-18T09:13:56.542Z,14.10
2023-05-18T09:16:24.847Z,14.10
2023-05-18T09:18:53.261Z,14.20
2023-05-18T09:21:22.896Z,14.20
2023-05-18T09:23:51.948Z,14.30
2023-05-18T09:26:21.087Z,14.40
2023-05-18T09:28:53.630Z,14.40
2023-05-18T09:31:24.516Z,14.50
2023-05-18T09:33:53.364Z,14.60
2023-05-18T09:36:29.164Z,14.60
2023-05-18T09:38:58.524Z,14.70
2023-05-18T09:41:28.373Z,14.70
2023-05-18T09:43:56.468Z,14.70
2023-05-18T09:46:24.804Z,14.80
2023-05-18T09:48:54.157Z,14.90
2023-05-18T09:51:25.494Z,14.90
2023-05-18T09:53:57.001Z,14.90
2023-05-18T09:56:25.077Z,15.10
2023-05-18T09:58:53.197Z,15.20
2023-05-18T10:01:21.332Z,15.20
2023-05-18T10:03:50.035Z,15.30
2023-05-18T10:06:20.039Z,15.30
2023-05-18T10:08:48.324Z,15.20
2023-05-18T10:11:21.925Z,15.30
2023-05-18T10:13:55.991Z,15.30
2023-05-18T10:16:26.203Z,15.30
2023-05-18T10:18:55.968Z,15.30
2023-05-18T10:21:28.763Z,15.40
2023-05-18T10:23:57.510Z,15.50
2023-05-18T10:26:29.912Z,15.50
2023-05-18T10:28:59.992Z,15.50
2023-05-18T10:31:31.304Z,15.50
2023-05-18T10:34:01.241Z,15.60
2023-05-18T10:36:32.905Z,15.70
2023-05-18T10:39:01.974Z,15.70
2023-05-18T10:41:33.450Z,15.80
2023-05-18T10:44:04.166Z,15.80
2023-05-18T10:46:33.351Z,15.80
2023-05-18T10:49:05.069Z,15.80
2023-05-18T10:51:35.267Z,15.80
2023-05-18T10:54:15.283Z,15.80
2023-05-18T10:56:47.728Z,15.80
2023-05-18T10:59:18.474Z,15.90
2023-05-18T11:01:48.577Z,16.00
2023-05-18T11:04:17.149Z,16.10
2023-05-18T11:06:54.947Z,16.20
2023-05-18T11:09:26.434Z,16.30
2023-05-18T11:11:58.458Z,16.30
2023-05-18T11:14:28.249Z,16.40
2023-05-18T11:17:16.969Z,16.40
2023-05-18T11:20:13.134Z,16.50
2023-05-18T11:22:47.789Z,16.50
2023-05-18T11:25:38.617Z,16.60
2023-05-18T11:28:10.427Z,16.50
2023-05-18T11:30:50.177Z,16.50
2023-05-18T11:33:28.279Z,16.70
2023-05-18T11:36:08.468Z,16.70
2023-05-18T11:38:54.245Z,16.80
2023-05-18T11:41:29.917Z,16.90
2023-05-18T11:44:17.387Z,17.00
2023-05-18T11:46:58.035Z,17.10
2023-05-18T11:49:28.088Z,17.20
2023-05-18T11:51:58.911Z,17.20
2023-05-18T11:54:27.432Z,17.10
2023-05-18T11:56:56.016Z,17.20
2023-05-18T11:59:37.688Z,17.30
2023-05-18T12:02:07.175Z,17.40
2023-05-18T12:04:37.793Z,17.50
2023-05-18T12:07:08.109Z,17.40
2023-05-18T12:09:36.728Z,17.40
2023-05-18T12:12:10.895Z,17.50
2023-05-18T12:14:43.205Z,17.50
2023-05-18T12:17:12.265Z,17.60
2023-05-18T12:19:44.094Z,17.70
2023-05-18T12:22:13.206Z,17.80
2023-05-18T12:24:42.836Z,18.00
2023-05-18T12:27:12.615Z,18.00
2023-05-18T12:29:43.255Z,18.10
2023-05-18T12:32:13.292Z,18.00
2023-05-18T12:34:41.496Z,18.10
2023-05-18T12:37:09.652Z,18.20
2023-05-18T12:39:38.195Z,18.30
2023-05-18T12:42:14.356Z,18.40
2023-05-18T12:44:46.019Z,18.50
2023-05-18T12:47:15.795Z,18.50
2023-05-18T12:49:49.193Z,18.50
2023-05-18T12:52:18.232Z,18.60
2023-05-18T12:54:54.942Z,18.70
2023-05-18T12:57:27.054Z,18.60
2023-05-18T12:59:56.812Z,18.70
2023-05-18T13:02:33.051Z,18.80
2023-05-18T13:05:06.315Z,18.90
2023-05-18T13:07:36.845Z,19.10
2023-05-18T13:10:09.613Z,19.00
2023-05-18T13:12:41.066Z,19.10
2023-05-18T13:15:15.950Z,19.10
2023-05-18T13:17:58.779Z,19.20
2023-05-18T13:20:34.474Z,19.20
2023-05-18T13:23:06.079Z,19.10
2023-05-18T13:25:34.310Z,19.10
2023-05-18T13:28:02.429Z,19.30
2023-05-18T13:30:32.966Z,19.40
2023-05-18T13:33:01.608Z,19.50
2023-05-18T13:35:30.241Z,19.70
2023-05-18T13:37:58.698Z,19.80
2023-05-18T13:40:26.816Z,19.90
2023-05-18T13:42:54.889Z,19.80
2023-05-18T13:45:23.161Z,19.90
2023-05-18T13:47:53.728Z,20.00
2023-05-18T13:50:23.126Z,20.00
2023-05-18T13:52:51.265Z,20.10
2023-05-18T13:55:20.084Z,20.20
2023-05-18T13:57:48.170Z,20.10
2023-05-18T14:00:17.378Z,20.10
2023-05-18T14:02:46.317Z,20.20
2023-05-18T14:05:16.414Z,20.30
2023-05-18T14:07:45.115Z,20.40
2023-05-18T14:10:14.626Z,20.40
2023-05-18T14:12:43.427Z,20.50
2023-05-18T14:15:14.126Z,20.60
2023-05-18T14:17:42.570Z,20.60
2023-05-18T14:20:11.995Z,20.60
2023-05-18T14:22:41.922Z,20.50
2023-05-18T14:25:10.294Z,20.40
2023-05-18T14:27:38.354Z,20.50
2023-05-18T14:30:07.796Z,20.60
2023-05-18T14:32:35.997Z,20.70
2023-05-18T14:35:04.548Z,20.80
2023-05-18T14:37:33.201Z,20.80
2023-05-18T14:40:02.773Z,20.80
2023-05-18T14:42:30.989Z,20.80
2023-05-18T14:44:59.093Z,20.90
2023-05-18T14:47:27.289Z,20.90
2023-05-18T14:49:55.310Z,21.00
2023-05-18T14:52:23.449Z,20.90
2023-05-18T14:54:51.499Z,20.90
2023-05-18T14:57:20.857Z,21.00
2023-05-18T14:59:48.844Z,21.00
2023-05-18T15:02:17.098Z,21.10
2023-05-18T15:04:45.264Z,21.10
2023-05-18T15:07:13.441Z,21.20
2023-05-18T15:09:41.551Z,21.10
2023-05-18T15:12:09.929Z,21.00
2023-05-18T15:14:39.256Z,20.90
2023-05-18T15:17:10.452Z,20.90
2023-05-18T15:19:38.573Z,21.00
2023-05-18T15:22:06.782Z,21.00
2023-05-18T15:24:35.141Z,21.00
2023-05-18T15:27:04.901Z,21.10
2023-05-18T15:29:33.039Z,21.10
2023-05-18T15:32:02.761Z,21.10
2023-05-18T15:34:33.313Z,21.10
2023-05-18T15:37:01.571Z,21.10
2023-05-18T15:39:31.403Z,21.10
2023-05-18T15:41:59.383Z,21.20
2023-05-18T15:44:29.458Z,21.30
2023-05-18T15:46:57.775Z,21.20
2023-05-18T15:49:27.299Z,21.20
2023-05-18T15:51:55.468Z,21.10
2023-05-18T15:54:24.008Z,21.10
2023-05-18T15:56:52.681Z,21.10
2023-05-18T15:59:21.344Z,21.20
2023-05-18T16:01:49.724Z,21.30
2023-05-18T16:04:17.824Z,21.30
2023-05-18T16:06:47.252Z,21.20
2023-05-18T16:09:16.044Z,21.20
2023-05-18T16:11:43.980Z,21.10
2023-05-18T16:14:12.039Z,21.10
2023-05-18T16:16:40.033Z,21.10
2023-05-18T16:19:08.752Z,21.10
2023-05-18T16:21:36.890Z,21.10
2023-05-18T16:24:07.515Z,21.00
2023-05-18T16:26:36.385Z,21.00
2023-05-18T16:29:06.286Z,21.00
2023-05-18T16:31:35.447Z,20.90
2023-05-18T16:34:07.270Z,20.80
2023-05-18T16:36:36.630Z,20.80
2023-05-18T16:39:07.924Z,20.90
2023-05-18T16:41:36.086Z,20.80
2023-05-18T16:44:06.718Z,20.70
2023-05-18T16:46:34.916Z,20.80
2023-05-18T16:49:03.833Z,20.80
2023-05-18T16:51:32.128Z,20.80
2023-05-18T16:54:00.166Z,20.80
2023-05-18T16:56:29.897Z,20.80
2023-05-18T16:58:58.024Z,20.80
2023-05-18T17:01:28.658Z,20.70
2023-05-18T17:03:58.527Z,20.70
2023-05-18T17:06:27.154Z,20.70
2023-05-18T17:08:58.111Z,20.70
2023-05-18T17:11:27.980Z,20.70
2023-05-18T17:14:00.024Z,20.60
2023-05-18T17:16:28.539Z,20.50
2023-05-18T17:18:57.703Z,20.50
2023-05-18T17:21:28.220Z,20.50
2023-05-18T17:23:56.544Z,20.50
2023-05-18T17:26:25.435Z,20.50
2023-05-18T17:28:54.169Z,20.40
2023-05-18T17:31:25.377Z,20.40
2023-05-18T17:33:54.600Z,20.30
2023-05-18T17:36:22.737Z,20.30
2023-05-18T17:38:50.877Z,20.30
2023-05-18T17:41:21.398Z,20.30
2023-05-18T17:43:49.862Z,20.30
2023-05-18T17:46:18.243Z,20.20
2023-05-18T17:48:48.924Z,20.20
2023-05-18T17:51:16.873Z,20.20
2023-05-18T17:53:45.753Z,20.10
2023-05-18T17:56:13.752Z,20.10
2023-05-18T17:58:41.752Z,20.10
2023-05-18T18:01:10.538Z,20.00
2023-05-18T18:03:41.703Z,20.00
2023-05-18T18:06:11.612Z,20.00
2023-05-18T18:08:39.659Z,19.90
2023-05-18T18:11:09.488Z,19.90
2023-05-18T18:13:39.836Z,19.80
2023-05-18T18:16:07.942Z,19.80
2023-05-18T18:18:37.177Z,19.70
2023-05-18T18:21:08.693Z,19.70
2023-05-18T18:23:40.115Z,19.60
2023-05-18T18:26:11.226Z,19.60
2023-05-18T18:28:40.339Z,19.50
2023-05-18T18:31:08.414Z,19.50
2023-05-18T18:33:36.449Z,19.50
2023-05-18T18:36:07.308Z,19.40
2023-05-18T18:38:35.353Z,19.30
2023-05-18T18:41:05.523Z,19.20
2023-05-18T18:43:35.141Z,19.20
2023-05-18T18:46:04.085Z,19.10
2023-05-18T18:48:32.286Z,19.00
2023-05-18T18:51:01.112Z,19.00
2023-05-18T18:53:29.240Z,18.90
2023-05-18T18:55:59.588Z,18.80
2023-05-18T18:58:28.974Z,18.70
2023-05-18T19:00:57.097Z,18.70
2023-05-18T19:03:26.337Z,18.70
2023-05-18T19:05:54.667Z,18.60
2023-05-18T19:08:22.742Z,18.50
2023-05-18T19:10:50.799Z,18.50
2023-05-18T19:13:18.940Z,18.50
2023-05-18T19:15:49.235Z,18.40
2023-05-18T19:18:17.251Z,18.40
2023-05-18T19:20:45.550Z,18.30
2023-05-18T19:23:13.575Z,18.30
2023-05-18T19:25:41.754Z,18.20
2023-05-18T19:28:09.867Z,18.10
2023-05-18T19:30:38.088Z,18.10
2023-05-18T19:33:10.229Z,18.00
2023-05-18T19:35:38.287Z,18.00
2023-05-18T19:38:10.319Z,17.90
2023-05-18T19:40:38.312Z,17.80
2023-05-18T19:43:06.769Z,17.80
2023-05-18T19:45:35.107Z,17.70
2023-05-18T19:48:03.882Z,17.70
2023-05-18T19:50:33.309Z,17.60
2023-05-18T19:53:01.358Z,17.60
2023-05-18T19:55:29.668Z,17.50
2023-05-18T19:57:57.834Z,17.50
2023-05-18T20:00:26.527Z,17.40
2023-05-18T20:02:54.691Z,17.30
2023-05-18T20:05:25.419Z,17.30
2023-05-18T20:07:55.202Z,17.30
2023-05-18T20:10:23.400Z,17.20
2023-05-18T20:12:51.523Z,17.10
2023-05-18T20:15:19.837Z,17.10
2023-05-18T20:17:47.894Z,17.00
2023-05-18T20:20:16.811Z,17.00
2023-05-18T20:22:44.891Z,16.90
2023-05-18T20:25:14.237Z,16.90
2023-05-18T20:27:45.324Z,16.90
2023-05-18T20:30:13.416Z,16.80
2023-05-18T20:32:41.451Z,16.80
2023-05-18T20:35:09.833Z,16.70
2023-05-18T20:37:41.398Z,16.60
2023-05-18T20:40:10.522Z,16.60
2023-05-18T20:42:40.610Z,16.40
2023-05-18T20:45:09.869Z,16.40
2023-05-18T20:47:38.039Z,16.30
2023-05-18T20:50:08.144Z,16.20
2023-05-18T20:52:36.674Z,16.10
2023-05-18T20:55:07.078Z,16.10
2023-05-18T20:57:35.179Z,16.00
2023-05-18T21:00:05.931Z,16.00
2023-05-18T21:02:34.232Z,15.90
2023-05-18T21:05:04.966Z,15.90
2023-05-18T21:07:34.372Z,15.80
2023-05-18T21:10:03.283Z,15.80
2023-05-18T21:12:31.975Z,15.80
2023-05-18T21:15:00.106Z,15.70
2023-05-18T21:17:29.639Z,15.70
2023-05-18T21:19:59.050Z,15.60
2023-05-18T21:22:27.129Z,15.60
2023-05-18T21:24:57.992Z,15.60
2023-05-18T21:27:26.217Z,15.50
2023-05-18T21:29:54.223Z,15.40
2023-05-18T21:32:22.797Z,15.40
2023-05-18T21:34:52.512Z,15.30
2023-05-18T21:37:20.734Z,15.30
2023-05-18T21:39:48.976Z,15.20
2023-05-18T21:42:17.017Z,15.10
2023-05-18T21:44:45.119Z,15.10
2023-05-18T21:47:13.407Z,15.00
2023-05-18T21:49:41.506Z,15.00
2023-05-18T21:52:11.003Z,14.90
2023-05-18T21:54:39.581Z,14.90
2023-05-18T21:57:08.836Z,14.90
2023-05-18T21:59:37.233Z,14.80
2023-05-18T22:02:06.294Z,14.80
2023-05-18T22:04:34.534Z,14.80
2023-05-18T22:07:02.792Z,14.80
2023-05-18T22:09:32.246Z,14.70
2023-05-18T22:12:01.126Z,14.70
2023-05-18T22:14:30.894Z,14.60
2023-05-18T22:16:59.124Z,14.60
2023-05-18T22:19:27.368Z,14.60
2023-05-18T22:21:55.818Z,14.60
2023-05-18T22:24:24.027Z,14.50
2023-05-18T22:26:53.727Z,14.50
2023-05-18T22:29:22.005Z,14.50
2023-05-18T22:31:50.102Z,14.50
2023-05-18T22:34:18.455Z,14.40
2023-05-18T22:36:46.489Z,14.40
2023-05-18T22:39:17.171Z,14.30
2023-05-18T22:41:45.366Z,14.30
2023-05-18T22:44:14.883Z,14.30
2023-05-18T22:46:43.045Z,14.30
2023-05-18T22:49:12.155Z,14.30
2023-05-18T22:51:40.906Z,14.20
2023-05-18T22:54:09.039Z,14.20
2023-05-18T22:56:37.195Z,14.20
2023-05-18T22:59:07.129Z,14.10
2023-05-18T23:01:37.802Z,14.10
2023-05-18T23:04:07.069Z,14.10
2023-05-18T23:06:35.214Z,14.10
2023-05-18T23:09:03.801Z,14.00
2023-05-18T23:11:34.907Z,14.00
2023-05-18T23:14:04.272Z,14.00
2023-05-18T23:16:32.334Z,13.90
2023-05-18T23:19:02.217Z,13.90
2023-05-18T23:21:30.996Z,13.90
2023-05-18T23:23:59.866Z,13.90
2023-05-18T23:26:27.899Z,13.90
2023-05-18T23:28:55.924Z,13.80
2023-05-18T23:31:24.248Z,13.80
2023-05-18T23:33:52.875Z,13.80
2023-05-18T23:36:22.978Z,13.80
2023-05-18T23:38:52.626Z,13.70
2023-05-18T23:41:21.999Z,13.70
2023-05-18T23:43:50.722Z,13.70
2023-05-18T23:46:19.583Z,13.70
2023-05-18T23:48:48.126Z,13.60
2023-05-18T23:51:17.854Z,13.60
2023-05-18T23:53:48.706Z,13.60
2023-05-18T23:56:17.199Z,13.50
2023-05-18T23:58:47.245Z,13.50
